createdAt,value
2023-05-05T00:02:26.079Z,10.43
2023-05-05T00:04:58.912Z,14.90
2023-05-05T00:07:28.805Z,13.07
2023-05-05T00:09:58.670Z,11.57
2023-05-05T00:12:28.642Z,11.70
2023-05-05T00:14:58.527Z,11.02
2023-05-05T00:17:28.532Z,13.00
2023-05-05T00:20:01.061Z,12.07
2023-05-05T00:22:31.368Z,17.95
2023-05-05T00:25:01.347Z,13.70
2023-05-05T00:27:31.311Z,11.27
2023-05-05T00:30:01.200Z,11.10
2023-05-05T00:32:31.411Z,11.43
2023-05-05T00:35:04.054Z,9.93
2023-05-05T00:37:33.900Z,9.50
2023-05-05T00:40:03.781Z,10.68
2023-05-05T00:42:42.639Z,8.77
2023-05-05T00:45:13.834Z,8.45
2023-05-05T00:47:46.019Z,11.80
2023-05-05T00:50:25.094Z,10.73
2023-05-05T00:52:56.996Z,9.85
2023-05-05T00:55:27.546Z,13.32
2023-05-05T00:57:57.738Z,13.18
2023-05-05T01:00:28.382Z,10.73
2023-05-05T01:02:58.372Z,8.27
2023-05-05T01:05:37.140Z,9.30
2023-05-05T01:08:21.779Z,8.63
2023-05-05T01:13:33.584Z,12.00
2023-05-05T01:16:10.893Z,10.02
2023-05-05T01:18:48.386Z,12.18
2023-05-05T01:21:27.180Z,10.77
2023-05-05T01:24:26.144Z,9.55
2023-05-05T01:27:18.561Z,10.82
2023-05-05T01:30:11.442Z,12.10
2023-05-05T01:32:47.921Z,10.65
2023-05-05T01:35:23.437Z,10.20
2023-05-05T01:37:57.396Z,9.88
2023-05-05T01:40:30.613Z,11.97
2023-05-05T01:43:03.446Z,12.15
2023-05-05T01:45:38.459Z,8.98
2023-05-05T01:48:12.990Z,11.75
2023-05-05T01:50:46.759Z,13.30
2023-05-05T01:53:18.247Z,10.93
2023-05-05T01:55:50.458Z,13.10
2023-05-05T01:58:21.038Z,12.90
2023-05-05T02:00:51.943Z,17.25
2023-05-05T02:03:26.893Z,13.52
2023-05-05T02:05:57.979Z,9.65
2023-05-05T02:08:29.513Z,12.82
2023-05-05T02:11:00.342Z,12.20
2023-05-05T02:13:32.681Z,12.75
2023-05-05T02:16:03.144Z,13.57
2023-05-05T02:18:36.852Z,11.80
2023-05-05T02:21:07.667Z,11.98
2023-05-05T02:23:37.985Z,12.20
2023-05-05T02:26:11.546Z,11.40
2023-05-05T02:28:44.478Z,10.88
2023-05-05T02:31:16.624Z,11.68
2023-05-05T02:33:52.223Z,10.07
2023-05-05T02:36:24.551Z,8.68
2023-05-05T02:38:58.356Z,11.30
2023-05-05T02:41:29.738Z,12.10
2023-05-05T02:44:02.435Z,13.50
2023-05-05T02:46:32.523Z,13.45
2023-05-05T02:49:04.981Z,12.95
2023-05-05T02:51:35.216Z,11.63
2023-05-05T02:54:05.521Z,10.00
2023-05-05T02:56:43.399Z,11.35
2023-05-05T02:59:17.461Z,10.63
2023-05-05T03:01:56.906Z,7.85
2023-05-05T03:04:34.421Z,9.95
2023-05-05T03:07:14.396Z,8.23
2023-05-05T03:09:49.582Z,8.38
2023-05-05T03:12:23.872Z,7.68
2023-05-05T03:17:27.275Z,10.13
2023-05-05T03:20:02.265Z,10.55
2023-05-05T03:22:33.709Z,8.48
2023-05-05T03:25:03.507Z,8.30
2023-05-05T03:27:33.596Z,9.57
2023-05-05T03:30:03.702Z,11.68
2023-05-05T03:32:33.526Z,9.13
2023-05-05T03:35:06.135Z,11.63
2023-05-05T03:37:35.973Z,7.90
2023-05-05T03:40:06.633Z,9.55
2023-05-05T03:42:36.668Z,8.32
2023-05-05T03:45:07.227Z,9.07
2023-05-05T03:47:37.515Z,7.78
2023-05-05T03:50:11.508Z,8.85
2023-05-05T03:52:41.909Z,8.35
2023-05-05T03:55:12.368Z,8.45
2023-05-05T03:57:42.227Z,8.60
2023-05-05T04:00:13.601Z,9.30
2023-05-05T04:02:43.675Z,8.77
2023-05-05T04:05:16.255Z,8.00
2023-05-05T04:07:46.077Z,8.63
2023-05-05T04:10:15.923Z,9.10
2023-05-05T04:12:46.418Z,9.57
2023-05-05T04:15:16.391Z,7.15
2023-05-05T04:17:46.353Z,8.88
2023-05-05T04:20:18.998Z,13.10
2023-05-05T04:22:50.685Z,8.57
2023-05-05T04:25:22.096Z,8.50
2023-05-05T04:27:52.009Z,9.30
2023-05-05T04:30:22.100Z,9.38
2023-05-05T04:32:52.006Z,7.28
2023-05-05T04:35:24.899Z,9.90
2023-05-05T04:37:55.672Z,11.23
2023-05-05T04:40:26.356Z,8.32
2023-05-05T04:42:56.156Z,8.32
2023-05-05T04:45:26.040Z,13.27
2023-05-05T04:47:55.997Z,11.32
2023-05-05T04:50:28.525Z,10.45
2023-05-05T04:52:58.317Z,9.18
2023-05-05T04:55:28.243Z,12.52
2023-05-05T04:57:58.170Z,9.80
2023-05-05T05:00:28.036Z,12.75
2023-05-05T05:02:58.233Z,11.02
2023-05-05T05:05:30.728Z,10.27
2023-05-05T05:08:00.652Z,9.95
2023-05-05T05:10:30.587Z,12.48
2023-05-05T05:13:00.607Z,14.38
2023-05-05T05:15:30.772Z,13.35
2023-05-05T05:18:00.715Z,10.55
2023-05-05T05:20:33.644Z,10.77
2023-05-05T05:23:04.501Z,10.77
2023-05-05T05:25:34.378Z,15.15
2023-05-05T05:28:10.004Z,10.48
2023-05-05T05:30:40.801Z,16.88
2023-05-05T05:33:10.799Z,11.07
2023-05-05T05:35:43.316Z,12.85
2023-05-05T05:38:13.168Z,12.15
2023-05-05T05:40:43.024Z,14.18
2023-05-05T05:43:12.828Z,16.83
2023-05-05T05:45:42.800Z,14.60
2023-05-05T05:48:12.704Z,13.88
2023-05-05T05:50:45.145Z,13.73
2023-05-05T05:53:14.965Z,13.18
2023-05-05T05:55:44.802Z,13.13
2023-05-05T05:58:14.670Z,14.88
2023-05-05T06:00:44.560Z,12.25
2023-05-05T06:03:14.921Z,10.48
2023-05-05T06:05:47.761Z,12.38
2023-05-05T06:08:17.616Z,8.52
2023-05-05T06:10:48.310Z,9.90
2023-05-05T06:13:18.298Z,11.63
2023-05-05T06:15:48.202Z,11.60
2023-05-05T06:18:18.169Z,9.98
2023-05-05T06:20:52.421Z,10.57
2023-05-05T06:23:22.665Z,7.88
2023-05-05T06:25:54.149Z,11.77
2023-05-05T06:28:24.014Z,16.90
2023-05-05T06:30:54.503Z,8.82
2023-05-05T06:33:24.382Z,11.07
2023-05-05T06:35:57.428Z,10.80
2023-05-05T06:38:27.356Z,8.18
2023-05-05T06:40:58.570Z,9.38
2023-05-05T06:43:28.489Z,9.63
2023-05-05T06:45:58.293Z,5.82
2023-05-05T06:48:28.178Z,7.45
2023-05-05T06:51:00.593Z,4.43
2023-05-05T06:53:30.517Z,6.45
2023-05-05T06:56:00.316Z,7.53
2023-05-05T06:58:30.231Z,6.32
2023-05-05T07:01:00.197Z,7.55
2023-05-05T07:03:31.292Z,6.95
2023-05-05T07:06:06.799Z,4.20
2023-05-05T07:08:36.732Z,4.72
2023-05-05T07:11:07.180Z,8.25
2023-05-05T07:13:37.075Z,8.23
2023-05-05T07:16:07.762Z,13.38
2023-05-05T07:18:37.714Z,8.55
2023-05-05T07:21:10.139Z,5.72
2023-05-05T07:23:40.749Z,9.18
2023-05-05T07:26:10.608Z,4.13
2023-05-05T07:28:40.456Z,9.95
2023-05-05T07:31:10.454Z,17.92
2023-05-05T07:33:40.389Z,6.45
2023-05-05T07:36:13.012Z,4.18
2023-05-05T07:38:42.853Z,4.93
2023-05-05T07:41:13.297Z,6.38
2023-05-05T07:43:44.627Z,3.20
2023-05-05T07:46:15.045Z,5.60
2023-05-05T07:48:45.071Z,6.15
2023-05-05T07:51:17.600Z,6.10
2023-05-05T07:53:47.501Z,4.53
2023-05-05T07:56:17.397Z,6.85
2023-05-05T07:58:47.330Z,4.10
2023-05-05T08:01:17.245Z,7.45
2023-05-05T08:03:47.200Z,6.82
2023-05-05T08:06:22.088Z,6.82
2023-05-05T08:08:53.414Z,6.25
2023-05-05T08:11:23.460Z,9.30
2023-05-05T08:13:53.319Z,4.78
2023-05-05T08:16:23.223Z,4.20
2023-05-05T08:18:53.180Z,5.97
2023-05-05T08:21:25.652Z,7.53
2023-05-05T08:23:55.493Z,7.78
2023-05-05T08:26:25.348Z,4.47
2023-05-05T08:29:00.796Z,4.85
2023-05-05T08:31:31.000Z,6.47
2023-05-05T08:34:00.881Z,4.93
2023-05-05T08:36:33.323Z,6.97
2023-05-05T08:39:03.626Z,4.78
2023-05-05T08:41:34.052Z,7.10
2023-05-05T08:44:04.726Z,3.30
2023-05-05T08:46:34.906Z,7.35
2023-05-05T08:49:06.136Z,4.93
2023-05-05T08:51:45.596Z,5.18
2023-05-05T08:54:21.197Z,3.13
2023-05-05T08:56:53.520Z,5.75
2023-05-05T08:59:25.676Z,6.05
2023-05-05T09:01:56.740Z,8.63
2023-05-05T09:04:26.954Z,4.43
2023-05-05T09:07:00.563Z,5.35
2023-05-05T09:09:30.732Z,8.65
2023-05-05T09:12:03.119Z,9.07
2023-05-05T09:14:33.018Z,10.00
2023-05-05T09:17:02.988Z,7.43
2023-05-05T09:19:32.931Z,5.95
2023-05-05T09:22:05.325Z,4.68
2023-05-05T09:24:35.161Z,5.70
2023-05-05T09:27:24.942Z,5.15
2023-05-05T09:29:54.832Z,4.75
2023-05-05T09:32:25.213Z,3.10
2023-05-05T09:35:02.244Z,5.57
2023-05-05T09:37:34.930Z,4.18
2023-05-05T09:40:05.410Z,10.48
2023-05-05T09:42:35.333Z,4.82
2023-05-05T09:45:05.370Z,26.60
2023-05-05T09:47:38.913Z,4.40
2023-05-05T09:50:11.460Z,6.53
2023-05-05T09:52:43.914Z,5.70
2023-05-05T09:55:20.746Z,3.35
2023-05-05T09:57:50.662Z,5.35
2023-05-05T10:00:21.206Z,4.47
2023-05-05T10:02:51.393Z,10.15
2023-05-05T10:05:22.295Z,5.93
2023-05-05T10:07:54.895Z,6.43
2023-05-05T10:10:24.729Z,4.28
2023-05-05T10:12:54.881Z,3.25
2023-05-05T10:15:25.341Z,5.32
2023-05-05T10:18:06.883Z,4.43
2023-05-05T10:20:39.098Z,5.38
2023-05-05T10:23:17.455Z,4.10
2023-05-05T10:25:56.555Z,2.70
2023-05-05T10:28:32.126Z,3.17
2023-05-05T10:31:16.193Z,7.18
2023-05-05T10:33:56.990Z,2.63
2023-05-05T10:36:28.031Z,3.45
2023-05-05T10:39:02.729Z,4.25
2023-05-05T10:41:33.619Z,6.05
2023-05-05T10:44:04.729Z,4.97
2023-05-05T10:46:35.144Z,2.80
2023-05-05T10:49:13.468Z,3.50
2023-05-05T10:51:52.698Z,6.63
2023-05-05T10:54:32.798Z,4.93
2023-05-05T10:57:05.015Z,5.05
2023-05-05T10:59:42.878Z,5.15
2023-05-05T11:02:26.413Z,3.15
2023-05-05T11:05:15.382Z,4.33
2023-05-05T11:07:46.296Z,4.45
2023-05-05T11:10:20.684Z,5.05
2023-05-05T11:13:21.525Z,4.05
2023-05-05T11:15:54.307Z,4.90
2023-05-05T11:18:36.621Z,8.77
2023-05-05T11:21:20.375Z,4.05
2023-05-05T11:23:52.577Z,3.08
2023-05-05T11:26:51.904Z,7.05
2023-05-05T11:29:21.759Z,6.40
2023-05-05T11:32:16.307Z,4.15
2023-05-05T11:34:53.053Z,4.00
2023-05-05T11:37:26.401Z,4.45
2023-05-05T11:40:07.187Z,3.57
2023-05-05T11:42:39.879Z,5.63
2023-05-05T11:45:23.429Z,3.70
2023-05-05T11:47:53.487Z,3.43
2023-05-05T11:50:24.712Z,3.50
2023-05-05T11:52:54.600Z,3.58
2023-05-05T11:55:25.718Z,4.50
2023-05-05T11:57:58.186Z,3.88
2023-05-05T12:00:37.442Z,6.55
2023-05-05T12:03:08.836Z,4.70
2023-05-05T12:05:38.811Z,3.05
2023-05-05T12:08:08.868Z,3.58
2023-05-05T12:10:38.832Z,3.25
2023-05-05T12:13:20.839Z,3.92
2023-05-05T12:15:50.958Z,2.53
2023-05-05T12:18:21.594Z,2.28
2023-05-05T12:20:52.991Z,4.00
2023-05-05T12:23:23.062Z,3.42
2023-05-05T12:25:53.423Z,7.28
2023-05-05T12:28:25.865Z,3.00
2023-05-05T12:31:01.776Z,6.10
2023-05-05T12:33:31.697Z,2.17
2023-05-05T12:36:01.726Z,3.53
2023-05-05T12:38:31.618Z,2.42
2023-05-05T12:41:01.508Z,3.63
2023-05-05T12:43:35.793Z,6.03
2023-05-05T12:46:12.009Z,4.82
2023-05-05T12:48:46.345Z,3.65
2023-05-05T12:51:23.662Z,3.13
2023-05-05T12:54:06.146Z,5.05
2023-05-05T12:56:37.778Z,2.88
2023-05-05T12:59:12.105Z,2.28
2023-05-05T13:01:52.100Z,2.80
2023-05-05T13:04:23.188Z,4.05
2023-05-05T13:07:10.791Z,3.53
2023-05-05T13:09:40.809Z,2.88
2023-05-05T13:12:12.234Z,2.85
2023-05-05T13:14:44.845Z,4.50
2023-05-05T13:17:15.166Z,3.53
2023-05-05T13:19:46.663Z,3.47
2023-05-05T13:22:16.793Z,3.05
2023-05-05T13:24:52.332Z,3.83
2023-05-05T13:27:23.784Z,3.78
2023-05-05T13:29:56.233Z,2.33
2023-05-05T13:32:26.154Z,3.47
2023-05-05T13:34:56.037Z,8.90
2023-05-05T13:37:26.076Z,3.50
2023-05-05T13:39:59.427Z,4.70
2023-05-05T13:42:29.377Z,5.00
2023-05-05T13:45:01.825Z,4.50
2023-05-05T13:47:32.217Z,4.57
2023-05-05T13:50:02.360Z,4.38
2023-05-05T13:52:33.552Z,3.65
2023-05-05T13:55:03.679Z,4.82
2023-05-05T13:57:33.537Z,3.45
2023-05-05T14:00:06.843Z,3.00
2023-05-05T14:02:36.745Z,4.13
2023-05-05T14:05:07.269Z,3.50
2023-05-05T14:07:37.425Z,4.78
2023-05-05T14:10:08.456Z,2.97
2023-05-05T14:12:38.426Z,7.03
2023-05-05T14:15:12.195Z,5.07
2023-05-05T14:17:42.155Z,7.50
2023-05-05T14:20:13.192Z,3.83
2023-05-05T14:22:43.080Z,3.38
2023-05-05T14:25:13.073Z,2.65
2023-05-05T14:27:43.194Z,4.95
2023-05-05T14:30:16.759Z,6.20
2023-05-05T14:32:46.736Z,6.10
2023-05-05T14:35:16.602Z,3.40
2023-05-05T14:37:46.553Z,4.85
2023-05-05T14:40:16.400Z,5.47
2023-05-05T14:42:46.252Z,3.00
2023-05-05T14:45:18.882Z,3.97
2023-05-05T14:47:48.847Z,3.83
2023-05-05T14:50:18.718Z,2.83
2023-05-05T14:52:48.629Z,5.20
2023-05-05T14:55:18.547Z,4.10
2023-05-05T14:57:48.471Z,2.53
2023-05-05T15:00:21.662Z,2.55
2023-05-05T15:02:51.577Z,2.53
2023-05-05T15:05:21.581Z,2.70
2023-05-05T15:07:51.479Z,3.33
2023-05-05T15:10:22.072Z,3.25
2023-05-05T15:12:52.152Z,3.85
2023-05-05T15:15:24.676Z,4.78
2023-05-05T15:17:54.667Z,4.40
2023-05-05T15:20:25.390Z,2.45
2023-05-05T15:22:55.321Z,5.32
2023-05-05T15:25:25.374Z,3.22
2023-05-05T15:27:55.451Z,3.42
2023-05-05T15:30:28.084Z,4.00
2023-05-05T15:32:58.004Z,4.18
2023-05-05T15:35:28.138Z,2.47
2023-05-05T15:37:58.147Z,4.35
2023-05-05T15:40:28.153Z,3.47
2023-05-05T15:42:58.149Z,4.80
2023-05-05T15:45:30.741Z,4.60
2023-05-05T15:48:00.571Z,2.45
2023-05-05T15:50:31.102Z,8.77
2023-05-05T15:53:01.020Z,5.80
2023-05-05T15:55:31.037Z,2.67
2023-05-05T15:58:01.134Z,2.92
2023-05-05T16:00:34.053Z,2.70
2023-05-05T16:03:03.925Z,4.40
2023-05-05T16:05:33.762Z,2.65
2023-05-05T16:08:09.617Z,3.95
2023-05-05T16:10:39.885Z,3.67
2023-05-05T16:13:09.756Z,6.20
2023-05-05T16:15:42.236Z,4.43
2023-05-05T16:18:12.122Z,3.08
2023-05-05T16:20:41.928Z,3.97
2023-05-05T16:23:11.796Z,4.30
2023-05-05T16:25:41.653Z,4.28
2023-05-05T16:28:11.492Z,4.72
2023-05-05T16:30:44.106Z,7.32
2023-05-05T16:33:14.127Z,11.93
2023-05-05T16:35:46.535Z,7.00
2023-05-05T16:38:17.027Z,8.00
2023-05-05T16:40:46.909Z,4.80
2023-05-05T16:43:16.845Z,3.08
2023-05-05T16:45:49.294Z,8.00
2023-05-05T16:48:19.317Z,11.68
2023-05-05T16:50:50.027Z,7.20
2023-05-05T16:53:20.013Z,8.77
2023-05-05T16:55:52.785Z,8.52
2023-05-05T16:58:22.898Z,5.72
2023-05-05T17:00:55.473Z,5.47
2023-05-05T17:03:25.379Z,3.53
2023-05-05T17:05:56.079Z,3.53
2023-05-05T17:08:26.039Z,1.77
2023-05-05T17:10:55.935Z,4.93
2023-05-05T17:13:25.850Z,3.15
2023-05-05T17:15:58.527Z,3.15
2023-05-05T17:18:28.398Z,4.85
2023-05-05T17:20:58.302Z,3.30
2023-05-05T17:23:28.201Z,5.38
2023-05-05T17:25:58.897Z,3.53
2023-05-05T17:28:28.811Z,2.60
2023-05-05T17:31:02.150Z,2.22
2023-05-05T17:33:32.029Z,2.50
2023-05-05T17:36:01.901Z,2.15
2023-05-05T17:38:31.901Z,4.82
2023-05-05T17:41:02.183Z,5.10
2023-05-05T17:43:31.996Z,3.17
2023-05-05T17:46:04.407Z,3.05
2023-05-05T17:48:34.326Z,3.28
2023-05-05T17:51:04.184Z,1.75
2023-05-05T17:53:34.025Z,2.33
2023-05-05T17:56:04.419Z,3.20
2023-05-05T17:58:35.044Z,3.72
2023-05-05T18:01:07.617Z,3.58
2023-05-05T18:03:40.022Z,2.47
2023-05-05T18:06:10.652Z,3.05
2023-05-05T18:08:40.772Z,4.05
2023-05-05T18:11:10.988Z,4.53
2023-05-05T18:13:41.384Z,6.47
2023-05-05T18:16:13.906Z,3.53
2023-05-05T18:18:43.999Z,2.60
2023-05-05T18:21:13.894Z,3.15
2023-05-05T18:23:43.743Z,3.88
2023-05-05T18:26:13.634Z,6.57
2023-05-05T18:28:43.500Z,5.65
2023-05-05T18:31:16.011Z,4.57
2023-05-05T18:33:47.659Z,5.47
2023-05-05T18:36:17.794Z,11.50
2023-05-05T18:38:47.869Z,3.50
2023-05-05T18:41:17.989Z,6.15
2023-05-05T18:43:47.918Z,6.80
2023-05-05T18:46:20.439Z,7.53
2023-05-05T18:48:50.315Z,8.77
2023-05-05T18:51:20.223Z,7.07
2023-05-05T18:53:50.080Z,6.90
2023-05-05T18:56:19.941Z,7.05
2023-05-05T18:58:49.839Z,6.60
2023-05-05T19:01:22.386Z,5.95
2023-05-05T19:03:52.526Z,7.00
2023-05-05T19:06:22.420Z,5.60
2023-05-05T19:08:52.287Z,5.68
2023-05-05T19:11:22.149Z,9.20
2023-05-05T19:13:52.125Z,6.30
2023-05-05T19:16:24.736Z,5.45
2023-05-05T19:18:58.776Z,7.53
2023-05-05T19:21:30.021Z,5.57
2023-05-05T19:23:59.843Z,5.82
2023-05-05T19:26:29.836Z,6.40
2023-05-05T19:28:59.697Z,9.00
2023-05-05T19:31:32.209Z,5.25
2023-05-05T19:34:04.628Z,7.13
2023-05-05T19:36:35.031Z,5.25
2023-05-05T19:39:06.949Z,5.68
2023-05-05T19:41:37.231Z,10.25
2023-05-05T19:44:07.604Z,6.53
2023-05-05T19:46:40.190Z,7.88
2023-05-05T19:49:10.158Z,7.03
2023-05-05T19:51:40.124Z,7.93
2023-05-05T19:54:09.995Z,8.18
2023-05-05T19:56:40.524Z,9.18
2023-05-05T19:59:10.899Z,8.85
2023-05-05T20:01:43.303Z,9.73
2023-05-05T20:04:13.289Z,9.23
2023-05-05T20:06:43.142Z,10.70
2023-05-05T20:09:13.080Z,9.65
2023-05-05T20:11:42.951Z,7.18
2023-05-05T20:14:12.819Z,9.80
2023-05-05T20:16:45.347Z,6.88
2023-05-05T20:19:15.237Z,9.68
2023-05-05T20:21:45.140Z,7.13
2023-05-05T20:24:14.994Z,7.22
2023-05-05T20:26:44.988Z,9.57
2023-05-05T20:29:16.467Z,9.35
2023-05-05T20:31:49.053Z,9.68
2023-05-05T20:34:19.026Z,8.60
2023-05-05T20:36:48.911Z,11.85
2023-05-05T20:39:18.895Z,8.13
2023-05-05T20:41:49.010Z,7.60
2023-05-05T20:44:18.846Z,9.45
2023-05-05T20:46:51.344Z,8.10
2023-05-05T20:49:21.282Z,9.55
2023-05-05T20:51:51.457Z,8.90
2023-05-05T20:54:21.425Z,8.57
2023-05-05T20:56:53.043Z,8.60
2023-05-05T20:59:22.892Z,6.88
2023-05-05T21:01:55.366Z,8.43
2023-05-05T21:04:25.242Z,9.60
2023-05-05T21:06:55.128Z,12.48
2023-05-05T21:09:28.991Z,8.82
2023-05-05T21:11:59.244Z,7.90
2023-05-05T21:14:29.378Z,8.45
2023-05-05T21:17:01.879Z,9.30
2023-05-05T21:19:31.800Z,7.47
2023-05-05T21:22:02.303Z,8.20
2023-05-05T21:24:32.174Z,9.95
2023-05-05T21:27:02.037Z,10.15
2023-05-05T21:29:34.412Z,10.40
2023-05-05T21:32:06.916Z,8.75
2023-05-05T21:34:37.273Z,8.00
2023-05-05T21:37:07.940Z,7.22
2023-05-05T21:39:37.952Z,8.85
2023-05-05T21:42:07.975Z,8.38
2023-05-05T21:44:37.833Z,7.13
2023-05-05T21:47:10.538Z,7.30
2023-05-05T21:49:40.428Z,7.75
2023-05-05T21:52:10.277Z,10.05
2023-05-05T21:54:40.882Z,8.10
2023-05-05T21:57:10.840Z,5.85
2023-05-05T21:59:41.357Z,6.97
2023-05-05T22:02:13.756Z,5.38
2023-05-05T22:04:46.126Z,6.55
2023-05-05T22:07:16.041Z,9.05
2023-05-05T22:09:46.030Z,8.32
2023-05-05T22:12:16.416Z,8.32
2023-05-05T22:14:46.316Z,8.68
2023-05-05T22:17:18.721Z,8.15
2023-05-05T22:19:48.603Z,7.22
2023-05-05T22:22:18.707Z,8.75
2023-05-05T22:24:48.521Z,7.75
2023-05-05T22:27:18.548Z,8.73
2023-05-05T22:29:48.439Z,8.00
2023-05-05T22:32:20.846Z,8.82
2023-05-05T22:34:50.947Z,7.20
2023-05-05T22:37:20.882Z,8.80
2023-05-05T22:39:50.848Z,9.15
2023-05-05T22:42:21.055Z,8.48
2023-05-05T22:44:50.938Z,9.60
2023-05-05T22:47:23.446Z,7.25
2023-05-05T22:49:53.534Z,9.52
2023-05-05T22:52:25.769Z,12.00
2023-05-05T22:54:55.637Z,10.38
2023-05-05T22:57:25.810Z,7.68
2023-05-05T22:59:55.784Z,10.48
2023-05-05T23:02:29.072Z,10.93
2023-05-05T23:04:58.961Z,9.63
2023-05-05T23:07:28.962Z,7.85
2023-05-05T23:09:58.911Z,8.95
2023-05-05T23:12:28.829Z,7.60
2023-05-05T23:14:58.661Z,11.43
2023-05-05T23:17:31.245Z,8.70
2023-05-05T23:20:02.549Z,14.07
2023-05-05T23:22:32.380Z,9.38
2023-05-05T23:25:02.408Z,8.10
2023-05-05T23:27:33.800Z,8.25
2023-05-05T23:30:03.733Z,7.30
2023-05-05T23:32:36.841Z,4.88
2023-05-05T23:35:07.241Z,4.70
2023-05-05T23:37:37.188Z,5.07
2023-05-05T23:40:08.987Z,4.47
2023-05-05T23:42:38.900Z,5.00
2023-05-05T23:45:10.220Z,7.20
2023-05-05T23:47:42.957Z,5.28
2023-05-05T23:50:13.431Z,3.58
2023-05-05T23:52:43.273Z,4.97
2023-05-05T23:55:14.448Z,6.63
2023-05-05T23:57:44.344Z,5.82
